Sektagli, Russia
Current Conditions -  °F | °C
As of 12:30 PM on Friday 21 Nov 2014 (Local Time) from UHBB Reporting Station
Snow Showers Snow Showers  
Wind Chill:   Ceiling: 2000
Heat Index: 18°   Visibility: 1.9mi
Dew Point: 18°   Wind: 7mph
Humidity: 100%   Direction: 360°N
Pressure: 29.8"   Gusts: NA
Location:  50.42°N, 131°E
Report Text: UHBB 210230Z 36003MPS 320V020 3100 -SHSN SCT007 BKN020CBOVC100 M08/M08 Q1009 NOSIG RMK QFE739/0986 36450540
Loading
Personal Weather Stations






























Interactive Weather Map New forecast layout! Learn more

10-Day Weather Forecast

Advertisements
Track Severe Weather on mobile